Time;durP1;ratioP1;P1;durP2;ratioP2;P2;SDS_P1;SDS_P2;PMS_P1;PMS_P2;Temp;Humidity;BMP_temperature;BMP_pressure;BME280_temperature;BME280_humidity;BME280_pressure;Samples;Min_cycle;Max_cycle;Signal;HPM_P1;HPM_P2
2022/06/16 00:01:51;;;;;;;;;;;;;;;15.49;85.74;98416.09;1687349;84;22052;-85
2022/06/16 00:04:17;;;;;;;;;;;;;;;15.43;85.75;98414.04;1695467;83;25894;-85
2022/06/16 00:06:49;;;;;;;;;;;;;;;15.33;85.91;98413.66;1695956;83;24031;-85
2022/06/16 00:09:15;;;;;;;;;;;;;;;15.24;86.21;98411.37;1690646;83;20478;-85
2022/06/16 00:11:41;;;;;;;;;;;;;;;15.05;86.53;98401.61;1695515;83;20240;-85
2022/06/16 00:14:16;;;;;;;;;;;;;;;14.88;86.84;98403.61;1696147;83;22051;-85
2022/06/16 00:16:42;;;;;;;;;;;;;;;14.68;87.08;98397.07;1698826;84;26156;-85
2022/06/16 00:19:08;;;;;;;;;;;;;;;14.53;87.51;98397.93;1698345;83;20277;-85
2022/06/16 00:21:34;;;;;;;;;;;;;;;14.43;87.94;98397.90;1665810;85;20828;-85
2022/06/16 00:24:00;;;;;;;;;;;;;;;14.34;88.39;98396.52;1665702;85;20366;-85
2022/06/16 00:26:27;;;;;;;;;;;;;;;14.30;88.94;98397.23;1693360;83;20314;-85
2022/06/16 00:28:53;;;;;;;;;;;;;;;14.26;89.53;98397.16;1696547;83;26045;-85
2022/06/16 00:31:20;;;;;;;;;;;;;;;14.33;90.29;98396.99;1694556;83;20289;-85
2022/06/16 00:33:46;;;;;;;;;;;;;;;14.39;91.00;98389.08;1697136;83;20208;-85
2022/06/16 00:36:13;;;;;;;;;;;;;;;14.47;91.58;98394.02;1697927;84;24876;-85
2022/06/16 00:38:39;;;;;;;;;;;;;;;14.48;92.01;98393.06;1696128;83;21955;-85
2022/06/16 00:41:05;;;;;;;;;;;;;;;14.58;92.55;98390.46;1692164;83;25983;-85
2022/06/16 00:43:31;;;;;;;;;;;;;;;14.57;92.91;98388.79;1697429;83;24341;-85
2022/06/16 00:46:01;;;;;;;;;;;;;;;14.54;93.24;98393.02;1697776;83;20230;-85
2022/06/16 00:48:42;;;;;;;;;;;;;;;14.44;93.65;98389.03;1696771;83;24875;-85
2022/06/16 00:51:09;;;;;;;;;;;;;;;14.37;94.07;98389.69;1735025;82;22222;-86
2022/06/16 00:53:37;;;;;;;;;;;;;;;14.35;94.43;98386.31;1704533;83;26055;-87
2022/06/16 00:56:04;;;;;;;;;;;;;;;14.32;94.73;98388.73;1699886;83;24475;-87
2022/06/16 00:58:32;;;;;;;;;;;;;;;14.33;95.13;98383.83;1697812;83;20516;-90
2022/06/16 01:00:58;;;;;;;;;;;;;;;14.38;95.58;98382.14;1721797;81;24810;-90
2022/06/16 01:06:22;;;;;;;;;;;;;;;14.67;96.47;98382.27;1699372;83;26010;-89
2022/06/16 01:08:51;;;;;;;;;;;;;;;14.74;96.71;98378.10;1728159;81;24316;-86
2022/06/16 01:13:41;;;;;;;;;;;;;;;14.83;96.83;98382.59;1725222;82;20251;-84
2022/06/16 01:13:48;;;;;;;;;;;;;;;14.80;96.91;98374.45;1699680;83;24915;-84
2022/06/16 01:16:22;;;;;;;;;;;;;;;14.68;96.91;98370.25;1723993;81;22777;-85
2022/06/16 01:18:59;;;;;;;;;;;;;;;14.57;96.94;98370.36;1694073;83;26194;-84
2022/06/16 01:21:27;;;;;;;;;;;;;;;14.51;97.08;98368.28;1710850;83;24546;-84
2022/06/16 01:24:01;;;;;;;;;;;;;;;14.47;97.25;98378.23;1714451;83;20262;-86
2022/06/16 01:26:35;;;;;;;;;;;;;;;14.49;97.41;98368.89;1690805;83;24757;-86
2022/06/16 01:29:03;;;;;;;;;;;;;;;14.39;97.52;98370.17;1712920;82;22199;-84
2022/06/16 01:31:34;;;;;;;;;;;;;;;14.33;97.67;98364.56;1714410;83;26079;-88
2022/06/16 01:34:18;;;;;;;;;;;;;;;14.33;97.91;98362.77;1711911;83;24423;-89
2022/06/16 01:36:49;;;;;;;;;;;;;;;14.36;98.19;98368.23;1714719;83;20210;-86
2022/06/16 01:39:17;;;;;;;;;;;;;;;14.44;98.55;98368.45;1713519;82;24759;-84
2022/06/16 01:41:52;;;;;;;;;;;;;;;14.42;98.82;98367.27;1715143;82;22074;-84
2022/06/16 01:44:19;;;;;;;;;;;;;;;14.51;99.15;98369.09;1682776;83;26699;-86
2022/06/16 01:46:47;;;;;;;;;;;;;;;14.47;99.32;98368.17;1708542;83;25426;-86
2022/06/16 01:49:18;;;;;;;;;;;;;;;14.43;99.49;98367.62;1712497;83;20279;-84
2022/06/16 01:51:45;;;;;;;;;;;;;;;14.45;99.74;98365.70;1713261;83;25681;-84
2022/06/16 01:54:13;;;;;;;;;;;;;;;14.43;99.92;98370.73;1714460;82;21993;-84
2022/06/16 01:56:44;;;;;;;;;;;;;;;14.44;100.00;98367.14;1717393;81;26202;-84
2022/06/16 01:59:11;;;;;;;;;;;;;;;14.43;100.00;98368.94;1712434;82;24636;-84
2022/06/16 02:01:39;;;;;;;;;;;;;;;14.39;100.00;98370.17;1677926;83;20363;-84
2022/06/16 02:04:07;;;;;;;;;;;;;;;14.34;100.00;98362.28;1714891;82;24762;-83
2022/06/16 02:06:38;;;;;;;;;;;;;;;14.34;100.00;98363.61;1712431;83;21936;-84
2022/06/16 02:09:08;;;;;;;;;;;;;;;14.39;100.00;98362.27;1714689;82;26101;-85
2022/06/16 02:11:35;;;;;;;;;;;;;;;14.53;100.00;98363.70;1713935;83;24411;-85
2022/06/16 02:14:08;;;;;;;;;;;;;;;14.60;100.00;98362.20;1715377;83;20174;-83
2022/06/16 02:16:36;;;;;;;;;;;;;;;14.71;100.00;98362.09;1713609;83;24801;-88
2022/06/16 02:19:04;;;;;;;;;;;;;;;14.68;100.00;98355.77;1714079;83;21942;-88
2022/06/16 02:21:31;;;;;;;;;;;;;;;14.68;100.00;98361.03;1714134;82;26168;-83
2022/06/16 02:23:57;;;;;;;;;;;;;;;14.72;100.00;98361.62;1712863;82;24489;-84
2022/06/16 02:26:25;;;;;;;;;;;;;;;14.66;100.00;98359.04;1715594;82;20288;-83
2022/06/16 02:28:53;;;;;;;;;;;;;;;14.65;100.00;98362.15;1713738;82;25404;-84
2022/06/16 02:31:25;;;;;;;;;;;;;;;14.54;100.00;98364.05;1714192;82;22007;-88
2022/06/16 02:33:53;;;;;;;;;;;;;;;14.48;100.00;98361.47;1714373;82;26147;-88
2022/06/16 02:36:20;;;;;;;;;;;;;;;14.30;100.00;98358.23;1714922;82;24435;-89
2022/06/16 02:38:54;;;;;;;;;;;;;;;14.21;100.00;98364.65;1715368;82;20173;-86
2022/06/16 02:41:22;;;;;;;;;;;;;;;14.18;100.00;98361.46;1697745;83;24739;-84
2022/06/16 02:44:02;;;;;;;;;;;;;;;14.10;100.00;98369.16;1714467;83;22208;-84
2022/06/16 02:46:35;;;;;;;;;;;;;;;13.99;100.00;98376.66;1712066;82;26048;-84
2022/06/16 02:49:11;;;;;;;;;;;;;;;13.94;100.00;98375.38;1714125;83;24154;-84
2022/06/16 02:51:45;;;;;;;;;;;;;;;13.88;100.00;98369.30;1714037;82;20631;-85
2022/06/16 02:54:20;;;;;;;;;;;;;;;13.80;100.00;98372.09;1713453;82;24957;-89
2022/06/16 02:56:43;;;;;;;;;;;;;;;13.75;100.00;98369.49;1711552;82;22275;-84
2022/06/16 02:59:10;;;;;;;;;;;;;;;13.77;100.00;98373.67;1714638;82;26016;-84
2022/06/16 03:01:36;;;;;;;;;;;;;;;13.85;100.00;98376.16;1713178;82;24396;-84
2022/06/16 03:04:04;;;;;;;;;;;;;;;13.85;100.00;98377.00;1715532;82;20189;-84
2022/06/16 03:06:30;;;;;;;;;;;;;;;13.93;100.00;98378.48;1714227;82;24761;-84
2022/06/16 03:08:57;;;;;;;;;;;;;;;13.95;100.00;98373.94;1712880;82;21891;-84
2022/06/16 03:11:26;;;;;;;;;;;;;;;13.97;100.00;98375.09;1713324;82;26038;-84
2022/06/16 03:13:52;;;;;;;;;;;;;;;14.05;100.00;98371.35;1716458;83;24436;-84
2022/06/16 03:16:18;;;;;;;;;;;;;;;14.15;100.00;98373.55;1710280;82;20488;-84
2022/06/16 03:18:44;;;;;;;;;;;;;;;14.28;100.00;98373.34;1707233;81;20197;-84
2022/06/16 03:21:09;;;;;;;;;;;;;;;14.41;100.00;98379.23;1713822;82;20831;-85
2022/06/16 03:23:35;;;;;;;;;;;;;;;14.56;100.00;98374.78;1715423;82;21006;-89
2022/06/16 03:26:01;;;;;;;;;;;;;;;14.67;100.00;98375.20;1713451;83;21006;-85
2022/06/16 03:28:27;;;;;;;;;;;;;;;14.77;100.00;98373.42;1713525;82;20586;-86
2022/06/16 03:30:53;;;;;;;;;;;;;;;14.92;100.00;98373.86;1713790;82;24728;-86
2022/06/16 03:33:20;;;;;;;;;;;;;;;14.99;100.00;98370.55;1714335;83;20343;-89
2022/06/16 03:35:49;;;;;;;;;;;;;;;15.11;100.00;98369.12;1757711;80;26067;-89
2022/06/16 03:40:50;;;;;;;;;;;;;;;15.26;100.00;98363.30;1755402;80;20535;-86
2022/06/16 03:43:16;;;;;;;;;;;;;;;15.42;100.00;98362.26;1759209;80;24732;-86
2022/06/16 03:45:42;;;;;;;;;;;;;;;15.61;100.00;98358.80;1757990;80;21982;-86
2022/06/16 03:48:08;;;;;;;;;;;;;;;15.78;100.00;98362.52;1755949;80;20926;-85
2022/06/16 03:50:34;;;;;;;;;;;;;;;15.94;100.00;98361.45;1757101;80;24422;-89
2022/06/16 03:53:01;;;;;;;;;;;;;;;16.07;100.00;98363.79;1757386;80;20213;-84
2022/06/16 03:55:27;;;;;;;;;;;;;;;16.24;100.00;98354.64;1760420;80;24655;-89
2022/06/16 03:57:57;;;;;;;;;;;;;;;16.45;100.00;98357.05;1756740;80;22669;-88
2022/06/16 04:00:23;;;;;;;;;;;;;;;16.73;100.00;98357.92;1757091;80;25984;-86
2022/06/16 04:03:59;;;;;;;;;;;;;;;17.00;100.00;98360.55;1761546;80;24429;-85
2022/06/16 04:05:17;;;;;;;;;;;;;;;17.21;100.00;98356.77;1756815;80;20180;-85
2022/06/16 04:07:43;;;;;;;;;;;;;;;17.52;100.00;98355.40;1758548;80;20243;-84
2022/06/16 04:10:10;;;;;;;;;;;;;;;17.74;100.00;98349.66;1755862;80;21896;-89
2022/06/16 04:12:35;;;;;;;;;;;;;;;17.81;100.00;98350.71;1756463;80;26077;-89
2022/06/16 04:15:02;;;;;;;;;;;;;;;17.86;100.00;98360.83;1757491;81;20847;-85
2022/06/16 04:17:30;;;;;;;;;;;;;;;18.09;100.00;98359.83;1756286;80;20757;-85
2022/06/16 04:20:14;;;;;;;;;;;;;;;18.38;100.00;98354.52;1754260;81;24909;-86
2022/06/16 04:22:42;;;;;;;;;;;;;;;18.50;100.00;98348.95;1756207;80;22791;-86
2022/06/16 04:25:09;;;;;;;;;;;;;;;18.53;100.00;98358.75;1757532;80;26089;-86
2022/06/16 04:27:35;;;;;;;;;;;;;;;18.76;100.00;98357.20;1759916;80;24422;-86
2022/06/16 04:30:01;;;;;;;;;;;;;;;18.89;100.00;98357.25;1757737;80;20880;-86
2022/06/16 04:32:27;;;;;;;;;;;;;;;18.95;100.00;98356.61;1757097;80;20190;-86
2022/06/16 04:34:59;;;;;;;;;;;;;;;19.06;100.00;98363.77;1755240;80;21978;-85
2022/06/16 04:37:25;;;;;;;;;;;;;;;19.25;100.00;98355.19;1756172;80;26057;-85
2022/06/16 04:39:51;;;;;;;;;;;;;;;19.41;100.00;98358.70;1758713;80;20846;-84
2022/06/16 04:42:17;;;;;;;;;;;;;;;19.45;100.00;98357.89;1758383;80;20403;-89
2022/06/16 04:44:43;;;;;;;;;;;;;;;19.61;100.00;98363.21;1756550;80;20326;-89
2022/06/16 04:47:09;;;;;;;;;;;;;;;19.76;100.00;98358.05;1755258;80;20313;-90
2022/06/16 04:49:35;;;;;;;;;;;;;;;19.81;100.00;98358.38;1757508;80;21066;-85
2022/06/16 04:52:03;;;;;;;;;;;;;;;19.78;100.00;98358.23;1755930;80;20607;-90
2022/06/16 04:54:29;;;;;;;;;;;;;;;19.74;100.00;98357.41;1755633;81;20445;-90
2022/06/16 04:56:55;;;;;;;;;;;;;;;19.73;100.00;98352.59;1758544;80;24783;-86
2022/06/16 04:59:20;;;;;;;;;;;;;;;19.75;100.00;98353.23;1757595;80;20825;-85
2022/06/16 05:01:46;;;;;;;;;;;;;;;19.81;100.00;98350.41;1756961;80;20947;-88
2022/06/16 05:04:12;;;;;;;;;;;;;;;19.90;100.00;98360.05;1757685;80;20867;-89
2022/06/16 05:06:38;;;;;;;;;;;;;;;19.87;100.00;98348.42;1757325;81;20147;-89
2022/06/16 05:09:04;;;;;;;;;;;;;;;19.82;100.00;98350.25;1756431;80;24725;-89
2022/06/16 05:11:30;;;;;;;;;;;;;;;19.82;100.00;98349.42;1757460;80;20348;-84
2022/06/16 05:14:00;;;;;;;;;;;;;;;19.79;100.00;98341.80;1757284;80;25928;-84
2022/06/16 05:16:25;;;;;;;;;;;;;;;19.81;100.00;98342.45;1755381;80;24410;-89
2022/06/16 05:19:00;;;;;;;;;;;;;;;19.81;100.00;98345.94;1757539;80;20209;-89
2022/06/16 05:21:26;;;;;;;;;;;;;;;19.81;99.95;98343.77;1757626;80;24860;-86
2022/06/16 05:23:54;;;;;;;;;;;;;;;19.77;99.51;98345.11;1755456;80;20236;-89
2022/06/16 05:26:20;;;;;;;;;;;;;;;19.71;99.12;98345.78;1756211;80;25992;-89
2022/06/16 05:28:46;;;;;;;;;;;;;;;19.69;98.85;98345.97;1757709;80;20309;-85
2022/06/16 05:31:11;;;;;;;;;;;;;;;19.71;98.48;98347.11;1754811;80;20906;-88
2022/06/16 05:33:37;;;;;;;;;;;;;;;19.74;98.32;98345.46;1760637;80;21053;-86
2022/06/16 05:36:05;;;;;;;;;;;;;;;19.77;98.05;98345.11;1758684;80;20281;-86
2022/06/16 05:38:31;;;;;;;;;;;;;;;19.78;97.83;98342.30;1757138;80;26206;-88
2022/06/16 05:41:02;;;;;;;;;;;;;;;19.78;97.68;98342.80;1756646;80;24413;-83
2022/06/16 05:43:29;;;;;;;;;;;;;;;19.81;97.51;98338.46;1756519;80;20418;-85
2022/06/16 05:45:55;;;;;;;;;;;;;;;19.81;97.40;98336.64;1758454;80;24916;-85
2022/06/16 05:48:21;;;;;;;;;;;;;;;19.90;97.35;98345.45;1757373;80;22038;-85
2022/06/16 05:50:48;;;;;;;;;;;;;;;19.97;97.35;98338.44;1756781;80;25937;-86
2022/06/16 05:53:14;;;;;;;;;;;;;;;20.06;97.14;98336.12;1758335;80;24467;-85
2022/06/16 05:55:40;;;;;;;;;;;;;;;20.14;96.97;98335.25;1758141;80;20593;-83
2022/06/16 05:58:06;;;;;;;;;;;;;;;20.19;96.66;98334.24;1757199;80;24868;-83
2022/06/16 06:00:35;;;;;;;;;;;;;;;20.22;96.16;98334.75;1758457;80;20225;-86
2022/06/16 06:03:01;;;;;;;;;;;;;;;20.29;96.02;98338.36;1757609;80;26022;-89
2022/06/16 06:05:27;;;;;;;;;;;;;;;20.29;95.70;98338.36;1756221;80;24407;-83
2022/06/16 06:16:28;;;;;;;;;;;;;;;20.49;95.07;98335.36;1752298;80;25993;-84
2022/06/16 06:18:58;;;;;;;;;;;;;;;20.58;95.14;98336.97;1757219;80;24455;-85
2022/06/16 06:24:12;;;;;;;;;;;;;;;20.68;94.83;98336.27;1757264;80;24782;-84
2022/06/16 06:26:38;;;;;;;;;;;;;;;20.70;94.60;98332.44;1757160;80;21965;-84
2022/06/16 06:29:05;;;;;;;;;;;;;;;20.71;94.40;98331.94;1757291;80;25921;-89
2022/06/16 06:31:33;;;;;;;;;;;;;;;20.78;94.37;98330.26;1757164;80;24485;-89
2022/06/16 06:33:59;;;;;;;;;;;;;;;20.92;94.64;98328.17;1757744;80;20473;-89
2022/06/16 06:36:25;;;;;;;;;;;;;;;21.02;94.63;98331.44;1757522;80;24941;-89
2022/06/16 06:38:55;;;;;;;;;;;;;;;21.13;94.32;98324.87;1757484;80;20832;-85
2022/06/16 06:41:19;;;;;;;;;;;;;;;21.24;93.98;98325.84;1756437;80;26750;-85
2022/06/16 06:43:46;;;;;;;;;;;;;;;21.37;93.67;98325.26;1709333;81;24355;-86
2022/06/16 06:46:12;;;;;;;;;;;;;;;21.41;93.30;98322.05;1757487;80;20223;-85
2022/06/16 06:48:38;;;;;;;;;;;;;;;21.51;93.26;98319.97;1760121;80;20856;-85
2022/06/16 06:51:04;;;;;;;;;;;;;;;21.63;93.04;98319.05;1756377;80;20563;-88
2022/06/16 06:53:30;;;;;;;;;;;;;;;21.64;92.71;98318.05;1760130;80;25955;-83
2022/06/16 06:55:57;;;;;;;;;;;;;;;21.69;92.44;98319.66;1757786;81;20230;-84
2022/06/16 06:58:23;;;;;;;;;;;;;;;21.82;92.46;98327.05;1758077;80;20386;-84
2022/06/16 07:00:53;;;;;;;;;;;;;;;21.85;92.03;98318.18;1757268;80;24840;-89
2022/06/16 07:03:18;;;;;;;;;;;;;;;22.01;92.33;98311.39;1755877;80;22023;-84
2022/06/16 07:05:44;;;;;;;;;;;;;;;22.14;92.53;98309.94;1757517;80;21189;-84
2022/06/16 07:08:10;;;;;;;;;;;;;;;22.15;92.15;98307.06;1758229;80;20315;-89
2022/06/16 07:10:35;;;;;;;;;;;;;;;22.26;91.70;98305.27;1757047;81;20947;-84
2022/06/16 07:13:01;;;;;;;;;;;;;;;22.39;91.23;98309.47;1758049;80;24769;-90
2022/06/16 07:15:27;;;;;;;;;;;;;;;22.51;91.01;98305.33;1759714;80;20340;-86
2022/06/16 07:17:54;;;;;;;;;;;;;;;22.56;90.64;98299.42;1757837;80;25970;-84
2022/06/16 07:20:30;;;;;;;;;;;;;;;22.64;90.12;98307.84;1757563;80;24493;-85
2022/06/16 07:22:56;;;;;;;;;;;;;;;22.66;89.69;98308.47;1758564;80;20968;-84
2022/06/16 07:25:22;;;;;;;;;;;;;;;22.71;89.43;98304.26;1756858;80;24786;-84
2022/06/16 07:28:03;;;;;;;;;;;;;;;22.74;89.18;98302.56;1758105;81;20224;-85
2022/06/16 07:30:31;;;;;;;;;;;;;;;22.81;88.68;98299.95;1757406;81;26136;-89
2022/06/16 07:32:57;;;;;;;;;;;;;;;22.87;88.09;98300.03;1756226;81;23897;-86
2022/06/16 07:35:23;;;;;;;;;;;;;;;22.96;87.64;98302.59;1756786;80;20463;-85
2022/06/16 07:37:49;;;;;;;;;;;;;;;23.01;86.81;98295.68;1755827;81;20235;-88
2022/06/16 07:40:16;;;;;;;;;;;;;;;23.06;86.03;98302.61;1757516;81;20928;-88
2022/06/16 07:42:44;;;;;;;;;;;;;;;23.21;85.35;98304.71;1757100;80;26601;-88
2022/06/16 07:45:11;;;;;;;;;;;;;;;23.31;84.79;98305.22;1755051;80;25529;-88
2022/06/16 07:47:37;;;;;;;;;;;;;;;23.37;84.24;98307.63;1756238;80;20153;-85
2022/06/16 07:50:04;;;;;;;;;;;;;;;23.36;83.28;98302.80;1752386;80;24837;-84
2022/06/16 07:52:30;;;;;;;;;;;;;;;23.40;82.15;98304.59;1754674;80;20935;-84
2022/06/16 07:54:56;;;;;;;;;;;;;;;23.41;81.33;98300.89;1754560;80;21132;-88
2022/06/16 07:57:22;;;;;;;;;;;;;;;23.46;80.90;98298.50;1756132;80;20236;-84
2022/06/16 07:59:52;;;;;;;;;;;;;;;23.52;80.62;98296.90;1757957;80;20608;-84
2022/06/16 08:02:19;;;;;;;;;;;;;;;23.51;79.90;98288.59;1763747;80;25066;-84
2022/06/16 08:04:45;;;;;;;;;;;;;;;23.44;79.04;98292.50;1760836;80;22145;-88
2022/06/16 08:07:11;;;;;;;;;;;;;;;23.53;78.82;98294.55;1756712;80;21038;-88
2022/06/16 08:09:38;;;;;;;;;;;;;;;23.71;78.66;98295.75;1755877;80;24443;-89
2022/06/16 08:12:08;;;;;;;;;;;;;;;23.87;78.03;98297.81;1756661;80;20227;-85
2022/06/16 08:14:39;;;;;;;;;;;;;;;24.02;77.41;98291.84;1761523;80;24872;-84
2022/06/16 08:17:05;;;;;;;;;;;;;;;24.06;76.63;98290.42;1754325;80;22008;-83
2022/06/16 08:19:40;;;;;;;;;;;;;;;23.97;75.69;98286.25;1755045;80;26860;-84
2022/06/16 08:22:07;;;;;;;;;;;;;;;23.91;74.75;98297.73;1757533;81;24387;-84
2022/06/16 08:24:39;;;;;;;;;;;;;;;23.97;74.75;98291.61;1757444;80;20174;-85
2022/06/16 08:27:06;;;;;;;;;;;;;;;24.12;75.27;98292.31;1757169;80;25483;-88
2022/06/16 08:29:32;;;;;;;;;;;;;;;24.30;75.76;98290.50;1758873;80;22004;-85
2022/06/16 08:31:59;;;;;;;;;;;;;;;24.48;76.02;98286.29;1756748;81;25972;-84
2022/06/16 08:34:25;;;;;;;;;;;;;;;24.67;75.63;98290.56;1761814;80;24531;-85
2022/06/16 08:36:51;;;;;;;;;;;;;;;24.78;75.11;98294.00;1760654;80;20314;-85
2022/06/16 08:39:17;;;;;;;;;;;;;;;24.90;74.93;98286.57;1757906;80;25891;-86
2022/06/16 08:41:48;;;;;;;;;;;;;;;25.01;74.60;98290.52;1760835;80;20588;-84
2022/06/16 08:44:25;;;;;;;;;;;;;;;25.11;74.43;98290.94;1759593;80;26775;-84
2022/06/16 08:46:55;;;;;;;;;;;;;;;25.22;74.17;98290.86;1758200;80;25938;-84
2022/06/16 08:49:26;;;;;;;;;;;;;;;25.25;73.65;98291.80;1756281;80;20249;-85
2022/06/16 08:52:00;;;;;;;;;;;;;;;25.27;72.92;98288.39;1753207;80;24737;-85
2022/06/16 08:54:37;;;;;;;;;;;;;;;25.29;72.37;98285.83;1755072;80;21967;-88
2022/06/16 08:57:08;;;;;;;;;;;;;;;25.34;71.65;98282.53;1757128;80;26191;-85
2022/06/16 08:59:47;;;;;;;3.00;1.30;;;;;;;25.42;71.35;98287.17;1757154;80;24583;-88
2022/06/16 09:02:49;;;;;;;4.08;1.17;;;;;;;25.49;71.13;98286.35;1749608;80;28136;-85
2022/06/16 09:05:21;;;;;;;2.58;1.25;;;;;;;25.52;70.74;98285.95;1753005;80;28118;-83
2022/06/16 09:07:49;;;;;;;;;;;;;;;25.55;70.50;98282.85;1757841;80;28113;-84
2022/06/16 09:10:24;;;;;;;;;;;;;;;25.61;70.45;98281.55;1757770;80;26736;-85
2022/06/16 09:13:09;;;;;;;;;;;;;;;25.59;69.94;98277.41;1756968;80;25173;-83
2022/06/16 09:15:49;;;;;;;;;;;;;;;25.59;69.26;98280.92;1758798;80;20263;-86
2022/06/16 09:18:21;;;;;;;;;;;;;;;25.69;68.98;98281.88;1756949;80;24711;-85
2022/06/16 09:20:49;;;;;;;;;;;;;;;25.76;68.70;98278.65;1754669;80;22072;-85
2022/06/16 09:23:23;;;;;;;;;;;;;;;25.84;68.85;98278.45;1755527;80;26023;-86
2022/06/16 09:26:09;;;;;;;;;;;;;;;25.93;68.78;98266.47;1752739;80;24493;-90
2022/06/16 09:28:40;;;;;;;;;;;;;;;25.99;68.49;98265.63;1758912;80;20239;-85
2022/06/16 09:31:07;;;;;;;;;;;;;;;26.08;68.15;98275.09;1757143;80;24826;-86
2022/06/16 09:33:35;;;;;;;;;;;;;;;26.15;67.51;98272.41;1759351;80;22106;-85
2022/06/16 09:36:03;;;;;;;;;;;;;;;26.15;67.11;98267.87;1760222;80;25962;-89
2022/06/16 09:38:43;;;;;;;;;;;;;;;26.21;67.40;98280.95;1762462;80;24657;-85
2022/06/16 09:44:00;;;;;;;;;;;;;;;26.32;67.31;98283.54;1759531;80;24839;-85
2022/06/16 09:46:32;;;;;;;;;;;;;;;26.31;66.97;98272.50;1749464;81;21981;-89
2022/06/16 09:48:57;;;;;;;;;;;;;;;26.36;67.04;98268.66;1756776;80;26646;-90
2022/06/16 09:51:37;;;;;;;;;;;;;;;26.40;66.89;98265.88;1755556;79;25097;-89
2022/06/16 09:54:16;;;;;;;;;;;;;;;26.50;66.84;98273.79;1756281;80;20247;-90
2022/06/16 09:56:47;;;;;;;;;;;;;;;26.61;66.62;98273.64;1759205;80;24986;-90
2022/06/16 09:59:14;;;;;;;;;;;;;;;26.65;66.26;98270.83;1757374;80;21976;-85
2022/06/16 10:01:42;;;;;;;;;;;;;;;26.73;66.53;98270.56;1755212;80;26654;-85
2022/06/16 10:04:08;;;;;;;;;;;;;;;26.80;66.11;98275.39;1757042;80;25123;-85
2022/06/16 10:06:42;;;;;;;;;;;;;;;26.86;66.10;98272.38;1757891;80;20254;-84
2022/06/16 10:09:14;;;;;;;;;;;;;;;26.87;65.78;98263.28;1759720;80;24923;-85
2022/06/16 10:11:42;;;;;;;;;;;;;;;26.79;65.13;98263.00;1755726;80;22198;-85
2022/06/16 10:14:29;;;;;;;;;;;;;;;26.79;64.78;98258.15;1756953;80;26022;-85
2022/06/16 10:16:56;;;;;;;;;;;;;;;26.82;64.74;98260.42;1753729;81;24530;-89
2022/06/16 10:19:23;;;;;;;;;;;;;;;26.85;64.29;98258.63;1756048;80;20243;-86
2022/06/16 10:21:56;;;;;;;;;;;;;;;26.89;64.25;98259.39;1760830;80;24977;-87
2022/06/16 10:24:25;;;;;;;;;;;;;;;26.85;64.06;98259.46;1756930;80;22038;-89
2022/06/16 10:26:53;;;;;;;;;;;;;;;26.88;64.13;98260.42;1757684;80;26050;-85
2022/06/16 10:29:30;;;;;;;;;;;;;;;26.90;63.86;98258.33;1765721;80;24580;-85
2022/06/16 10:31:59;;;;;;;;;;;;;;;26.96;63.86;98259.33;1754266;80;20259;-85
2022/06/16 10:34:30;;;;;;;;;;;;;;;27.03;64.05;98256.09;1759650;80;25778;-85
2022/06/16 10:37:16;;;;;;;;;;;;;;;27.14;63.99;98261.30;1755325;80;22064;-85
2022/06/16 10:39:43;;;;;;;;;;;;;;;27.13;63.54;98258.30;1758847;80;26631;-86
2022/06/16 10:42:20;;;;;;;;;;;;;;;27.16;63.54;98257.36;1757727;80;25383;-85
2022/06/16 10:45:05;;;;;;;;;;;;;;;27.23;63.79;98264.84;1762506;80;20239;-85
2022/06/16 10:47:35;;;;;;;;;;;;;;;27.29;63.86;98265.83;1756252;80;24919;-85
2022/06/16 10:50:06;;;;;;;;;;;;;;;27.33;63.23;98265.72;1757544;80;22076;-85
2022/06/16 10:52:35;;;;;;;;;;;;;;;27.38;63.08;98265.89;1760257;80;26112;-86
2022/06/16 10:55:10;;;;;;;;;;;;;;;27.46;62.65;98262.91;1765669;80;24460;-86
2022/06/16 10:57:44;;;;;;;;;;;;;;;27.46;62.00;98258.36;1763899;80;20528;-86
2022/06/16 11:00:15;;;;;;;;;;;;;;;27.56;62.03;98260.59;1764045;80;24759;-88
2022/06/16 11:02:56;;;;;;;;;;;;;;;27.56;61.60;98255.20;1765555;80;22615;-85
2022/06/16 11:05:23;;;;;;;;;;;;;;;27.57;61.07;98258.20;1766075;80;26255;-85
2022/06/16 11:07:51;;;;;;;;;;;;;;;27.64;60.90;98256.30;1768379;80;24521;-85
2022/06/16 11:10:18;;;;;;;;;;;;;;;27.75;60.83;98252.88;1761101;80;20305;-85
2022/06/16 11:12:46;;;;;;;;;;;;;;;27.87;61.18;98242.23;1765656;80;24803;-88
2022/06/16 11:15:20;;;;;;;;;;;;;;;28.00;61.32;98235.34;1738421;81;22248;-86
2022/06/16 11:17:53;;;;;;;;;;;;;;;28.09;60.93;98234.03;1761973;80;26299;-85
2022/06/16 11:20:21;;;;;;;;;;;;;;;28.12;60.17;98230.91;1763314;80;24713;-85
2022/06/16 11:22:48;;;;;;;;;;;;;;;28.15;59.56;98218.86;1764546;80;20392;-85
2022/06/16 11:25:23;;;;;;;;;;;;;;;28.13;59.11;98220.45;1764330;80;25483;-87
2022/06/16 11:27:56;;;;;;;;;;;;;;;28.05;57.91;98214.49;1750118;80;21997;-85
2022/06/16 11:30:30;;;;;;;;;;;;;;;28.12;57.61;98209.87;1765159;80;26003;-85
2022/06/16 11:32:56;;;;;;;;;;;;;;;28.18;56.91;98218.42;1762500;80;25413;-86
2022/06/16 11:35:24;;;;;;;;;;;;;;;28.21;56.42;98217.96;1765397;80;20253;-85
2022/06/16 11:37:51;;;;;;;;;;;;;;;28.23;56.18;98215.88;1765292;80;24884;-85
2022/06/16 11:40:34;;;;;;;;;;;;;;;28.28;55.98;98220.06;1736657;80;21956;-85
2022/06/16 11:43:02;;;;;;;;;;;;;;;28.26;55.66;98216.76;1764313;80;26243;-86
2022/06/16 11:45:37;;;;;;;;;;;;;;;28.31;55.54;98210.20;1764654;80;24709;-85
2022/06/16 11:48:05;;;;;;;;;;;;;;;28.43;55.65;98207.03;1764142;80;20217;-85
2022/06/16 11:50:35;;;;;;;;;;;;;;;28.43;55.17;98208.38;1764779;80;24720;-85
2022/06/16 11:53:12;;;;;;;;;;;;;;;28.43;54.44;98207.03;1760468;80;22036;-89
2022/06/16 11:55:40;;;;;;;;;;;;;;;28.42;54.14;98208.63;1757354;80;26167;-85
2022/06/16 11:58:12;;;;;;;;;;;;;;;28.38;53.98;98207.41;1754299;81;24418;-85
2022/06/16 12:00:45;;;;;;;;;;;;;;;28.36;54.07;98201.45;1756925;80;20287;-85
2022/06/16 12:03:28;;;;;;;;;;;;;;;28.39;54.08;98199.12;1757857;80;24751;-89
2022/06/16 12:06:00;;;;;;;;;;;;;;;28.47;54.12;98193.95;1765076;80;22166;-89
2022/06/16 12:08:29;;;;;;;;;;;;;;;28.51;54.04;98194.61;1750796;81;26617;-86
2022/06/16 12:11:08;;;;;;;;;;;;;;;28.51;53.65;98189.23;1756319;80;24475;-89
2022/06/16 12:13:49;;;;;;;;;;;;;;;28.43;52.85;98181.45;1755631;80;20291;-86
2022/06/16 12:16:20;;;;;;;;;;;;;;;28.36;52.80;98182.60;1757933;80;24804;-87
2022/06/16 12:18:48;;;;;;;;;;;;;;;28.29;52.33;98186.20;1757259;81;21972;-87
2022/06/16 12:21:17;;;;;;;;;;;;;;;28.26;51.82;98184.46;1757069;80;26044;-87
2022/06/16 12:23:45;;;;;;;;;;;;;;;28.22;51.41;98181.94;1752457;80;24505;-86
2022/06/16 12:26:29;;;;;;;;;;;;;;;28.19;51.07;98178.36;1756772;80;20287;-86
2022/06/16 12:29:06;;;;;;;;;;;;;;;28.19;51.22;98177.84;1761372;80;24845;-87
2022/06/16 12:31:40;;;;;;;;;;;;;;;28.23;51.42;98174.98;1754319;80;22175;-87
2022/06/16 12:34:26;;;;;;;;;;;;;;;28.23;51.53;98174.98;1756253;80;26216;-86
2022/06/16 12:36:53;;;;;;;;;;;;;;;28.18;51.52;98169.98;1758637;79;24650;-88
2022/06/16 12:39:24;;;;;;;;;;;;;;;28.09;51.39;98171.31;1759881;80;20340;-86
2022/06/16 12:41:52;;;;;;;;;;;;;;;28.01;51.15;98167.05;1755951;80;25490;-86
2022/06/16 12:47:10;;;;;;;;;;;;;;;27.85;50.44;98163.09;1752363;80;25576;-85
2022/06/16 12:49:38;;;;;;;;;;;;;;;27.81;50.21;98161.08;1756801;80;24433;-85
2022/06/16 12:52:26;;;;;;;;;;;;;;;27.77;50.31;98153.95;1756440;80;20272;-85
2022/06/16 12:55:00;;;;;;;;;;;;;;;27.77;50.45;98151.78;1730819;82;24788;-87
2022/06/16 12:57:27;;;;;;;;;;;;;;;27.74;50.14;98149.03;1729542;81;22054;-89
2022/06/16 12:59:57;;;;;;;;;;;;;;;27.75;49.82;98145.30;1729857;81;26135;-85
2022/06/16 13:02:25;;;;;;;;;;;;;;;27.75;49.72;98138.58;1735612;81;24408;-85
2022/06/16 13:05:00;;;;;;;;;;;;;;;27.72;49.55;98132.29;1734752;81;20270;-86
2022/06/16 13:07:28;;;;;;;;;;;;;;;27.73;49.62;98131.25;1726148;82;24802;-89
2022/06/16 13:09:54;;;;;;;;;;;;;;;27.73;49.42;98129.91;1730018;81;22211;-89
2022/06/16 13:12:25;;;;;;;;;;;;;;;27.75;49.46;98123.80;1733453;81;21093;-85
2022/06/16 13:15:01;;;;;;;;;;;;;;;27.79;49.82;98128.19;1732764;81;24397;-85
2022/06/16 13:17:29;;;;;;;;;;;;;;;27.80;49.79;98129.31;1731293;81;20225;-85